Time;durP1;ratioP1;P1;durP2;ratioP2;P2;SDS_P1;SDS_P2;PMS_P1;PMS_P2;Temp;Humidity;BMP_temperature;BMP_pressure;BME280_temperature;BME280_humidity;BME280_pressure;Samples;Min_cycle;Max_cycle;Signal;HPM_P1;HPM_P2
2023/01/16 00:01:08;;;;;;;8.73;4.93;;;;;;;;;;5049989;28;20445;-73
2023/01/16 00:03:35;;;;;;;8.23;5.80;;;;;;;;;;5050666;28;20495;-73
2023/01/16 00:06:03;;;;;;;2.00;1.90;;;;;;;;;;5050937;28;20455;-73
2023/01/16 00:08:31;;;;;;;1.87;1.60;;;;;;;;;;5051050;28;20540;-73
2023/01/16 00:10:58;;;;;;;1.80;1.70;;;;;;;;;;5052607;28;20459;-73
2023/01/16 00:13:26;;;;;;;2.20;1.60;;;;;;;;;;5051633;28;20840;-73
2023/01/16 00:15:53;;;;;;;2.77;1.60;;;;;;;;;;5050259;28;20441;-73
2023/01/16 00:18:20;;;;;;;2.40;1.53;;;;;;;;;;5049628;28;20477;-73
2023/01/16 00:20:47;;;;;;;1.70;1.60;;;;;;;;;;5049538;28;20465;-73
2023/01/16 00:23:14;;;;;;;2.13;1.50;;;;;;;;;;5049756;28;20556;-74
2023/01/16 00:25:43;;;;;;;1.37;1.37;;;;;;;;;;5049874;28;20448;-73
2023/01/16 00:28:11;;;;;;;3.00;1.77;;;;;;;;;;5049409;28;20451;-73
2023/01/16 00:30:38;;;;;;;2.13;1.53;;;;;;;;;;5049912;28;20441;-73
2023/01/16 00:33:05;;;;;;;3.27;2.17;;;;;;;;;;5049330;28;20448;-73
2023/01/16 00:35:33;;;;;;;2.23;1.60;;;;;;;;;;5049202;28;20941;-74
2023/01/16 00:38:00;;;;;;;1.37;1.17;;;;;;;;;;5049872;28;20452;-73
2023/01/16 00:40:27;;;;;;;1.80;1.40;;;;;;;;;;5049589;28;20445;-73
2023/01/16 00:42:55;;;;;;;3.53;1.53;;;;;;;;;;5049071;28;20445;-72
2023/01/16 00:45:23;;;;;;;2.53;1.50;;;;;;;;;;5049624;28;20484;-73
2023/01/16 00:47:50;;;;;;;1.73;1.40;;;;;;;;;;5049240;28;20902;-74
2023/01/16 00:50:17;;;;;;;1.63;1.40;;;;;;;;;;5049369;28;21010;-73
2023/01/16 00:52:44;;;;;;;4.03;1.90;;;;;;;;;;5053970;28;20445;-72
2023/01/16 00:55:11;;;;;;;2.90;1.70;;;;;;;;;;5069586;28;20490;-73
2023/01/16 00:57:38;;;;;;;4.47;1.43;;;;;;;;;;5069614;28;20453;-73
2023/01/16 01:00:07;;;;;;;2.80;1.60;;;;;;;;;;5069387;28;21011;-74
2023/01/16 01:02:34;;;;;;;1.73;1.30;;;;;;;;;;5069384;28;20813;-74
2023/01/16 01:05:01;;;;;;;4.43;1.40;;;;;;;;;;5069463;28;20486;-74
2023/01/16 01:07:28;;;;;;;4.67;1.63;;;;;;;;;;5069771;28;20458;-74
2023/01/16 01:09:55;;;;;;;3.17;1.40;;;;;;;;;;5071143;28;20464;-73
2023/01/16 01:12:22;;;;;;;2.00;1.20;;;;;;;;;;5071931;28;20917;-74
2023/01/16 01:14:50;;;;;;;2.80;1.30;;;;;;;;;;5065985;28;20433;-74
2023/01/16 01:17:18;;;;;;;2.63;1.50;;;;;;;;;;5048696;28;20686;-73
2023/01/16 01:19:45;;;;;;;3.10;1.30;;;;;;;;;;5049108;28;20472;-73
2023/01/16 01:22:12;;;;;;;1.50;1.40;;;;;;;;;;5049265;28;20440;-73
2023/01/16 01:24:39;;;;;;;1.70;1.60;;;;;;;;;;5048782;28;20998;-73
2023/01/16 01:27:06;;;;;;;1.50;1.50;;;;;;;;;;5048957;28;20461;-73
2023/01/16 01:29:33;;;;;;;1.87;1.33;;;;;;;;;;5048846;28;20473;-73
2023/01/16 01:32:01;;;;;;;1.50;1.30;;;;;;;;;;5040702;28;20460;-74
2023/01/16 01:34:33;;;;;;;3.93;1.30;;;;;;;;;;5049644;28;20476;-73
2023/01/16 01:37:00;;;;;;;4.03;1.63;;;;;;;;;;5056342;28;20436;-73
2023/01/16 01:39:27;;;;;;;1.77;1.20;;;;;;;;;;5064828;28;20497;-73
2023/01/16 01:42:41;;;;;;;3.50;1.43;;;;;;;;;;5048972;28;20445;-73
2023/01/16 01:44:53;;;;;;;4.23;1.40;;;;;;;;;;5067348;28;20489;-73
2023/01/16 01:47:22;;;;;;;1.30;1.30;;;;;;;;;;5074235;28;20437;-72
2023/01/16 01:49:51;;;;;;;4.37;1.30;;;;;;;;;;5074359;28;20446;-73
2023/01/16 01:52:19;;;;;;;1.40;1.13;;;;;;;;;;5074127;28;20433;-73
2023/01/16 01:54:47;;;;;;;1.90;1.63;;;;;;;;;;5068311;28;20532;-73
2023/01/16 01:57:16;;;;;;;1.10;1.07;;;;;;;;;;5052922;28;20444;-72
2023/01/16 01:59:46;;;;;;;1.80;1.17;;;;;;;;;;5052666;28;20530;-73
2023/01/16 02:02:14;;;;;;;1.70;1.60;;;;;;;;;;5052236;28;20901;-72
2023/01/16 02:04:43;;;;;;;2.90;1.73;;;;;;;;;;5052078;28;20484;-73
2023/01/16 02:07:13;;;;;;;2.43;1.30;;;;;;;;;;5051921;28;20448;-73
2023/01/16 02:09:40;;;;;;;5.70;1.43;;;;;;;;;;5052046;28;20490;-73
2023/01/16 02:12:09;;;;;;;1.70;1.40;;;;;;;;;;5052066;28;20449;-73
2023/01/16 02:14:38;;;;;;;1.47;1.37;;;;;;;;;;5051679;28;20446;-73
2023/01/16 02:19:55;;;;;;;2.67;1.33;;;;;;;;;;5051871;28;20441;-73
2023/01/16 02:22:42;;;;;;;3.43;1.33;;;;;;;;;;5052156;28;20450;-73
2023/01/16 02:25:36;;;;;;;3.30;1.47;;;;;;;;;;5051783;28;20472;-75
2023/01/16 02:28:15;;;;;;;2.73;1.30;;;;;;;;;;5051512;28;20499;-73
2023/01/16 02:31:03;;;;;;;1.53;1.43;;;;;;;;;;5051920;28;20452;-74
2023/01/16 02:33:36;;;;;;;4.43;1.30;;;;;;;;;;5046430;28;20457;-73
2023/01/16 02:36:07;;;;;;;1.90;1.57;;;;;;;;;;5051812;28;20438;-74
2023/01/16 02:38:39;;;;;;;1.27;1.17;;;;;;;;;;5052091;28;20752;-72
2023/01/16 02:41:14;;;;;;;3.83;1.30;;;;;;;;;;5052653;28;20445;-73
2023/01/16 02:43:44;;;;;;;1.53;1.43;;;;;;;;;;5052831;28;20955;-73
2023/01/16 02:46:16;;;;;;;1.43;1.10;;;;;;;;;;5052795;28;20491;-74
2023/01/16 02:48:49;;;;;;;1.53;1.43;;;;;;;;;;5051400;28;20481;-73
2023/01/16 02:51:18;;;;;;;1.70;1.40;;;;;;;;;;5051780;28;20433;-74
2023/01/16 02:53:50;;;;;;;3.03;1.60;;;;;;;;;;5051140;28;20434;-74
2023/01/16 02:56:19;;;;;;;2.03;1.40;;;;;;;;;;5051701;28;20996;-73
2023/01/16 02:58:48;;;;;;;2.50;1.37;;;;;;;;;;5052083;28;20476;-73
2023/01/16 03:01:15;;;;;;;3.80;1.30;;;;;;;;;;5051353;28;20453;-72
2023/01/16 03:03:43;;;;;;;3.43;1.43;;;;;;;;;;5051816;28;20455;-74
2023/01/16 03:06:27;;;;;;;1.73;1.30;;;;;;;;;;5051697;28;20477;-73
2023/01/16 03:09:00;;;;;;;1.93;1.20;;;;;;;;;;5051422;28;20465;-73
2023/01/16 03:11:27;;;;;;;1.83;1.27;;;;;;;;;;5051225;28;20444;-75
2023/01/16 03:14:10;;;;;;;1.20;1.10;;;;;;;;;;5050045;28;20442;-72
2023/01/16 03:16:40;;;;;;;1.87;1.77;;;;;;;;;;5050842;28;20911;-73
2023/01/16 03:19:13;;;;;;;2.50;2.30;;;;;;;;;;5050873;28;20492;-73
2023/01/16 03:21:43;;;;;;;3.63;2.17;;;;;;;;;;5050901;28;20491;-72
2023/01/16 03:24:17;;;;;;;3.03;1.50;;;;;;;;;;5050921;28;20491;-73
2023/01/16 03:26:47;;;;;;;1.70;1.10;;;;;;;;;;5050874;28;20440;-74
2023/01/16 03:29:17;;;;;;;2.50;1.50;;;;;;;;;;5050687;28;20478;-73
2023/01/16 03:31:48;;;;;;;1.60;1.50;;;;;;;;;;5050964;28;20457;-72
2023/01/16 03:34:20;;;;;;;3.80;1.60;;;;;;;;;;5051814;28;20905;-73
2023/01/16 03:36:51;;;;;;;6.10;1.87;;;;;;;;;;5052539;28;20464;-74
2023/01/16 03:39:20;;;;;;;1.50;1.40;;;;;;;;;;5053086;28;20766;-73
2023/01/16 03:41:48;;;;;;;1.87;1.23;;;;;;;;;;5053058;28;20938;-73
2023/01/16 03:44:18;;;;;;;1.93;1.20;;;;;;;;;;5050229;28;20570;-73
2023/01/16 03:46:48;;;;;;;1.50;1.40;;;;;;;;;;5050502;28;20482;-74
2023/01/16 03:49:18;;;;;;;1.50;1.20;;;;;;;;;;5050501;28;20461;-73
2023/01/16 03:51:47;;;;;;;4.87;1.50;;;;;;;;;;5050050;28;20433;-73
2023/01/16 03:54:24;;;;;;;1.30;1.20;;;;;;;;;;5049941;28;20933;-73
2023/01/16 03:56:53;;;;;;;1.63;1.50;;;;;;;;;;5050294;28;20880;-72
2023/01/16 03:59:20;;;;;;;1.97;1.50;;;;;;;;;;5051768;28;20488;-73
2023/01/16 04:01:50;;;;;;;3.00;1.40;;;;;;;;;;5051842;28;20445;-72
2023/01/16 04:04:19;;;;;;;2.50;1.40;;;;;;;;;;5049596;28;20441;-72
2023/01/16 04:06:50;;;;;;;8.20;1.40;;;;;;;;;;5049693;28;20484;-75
2023/01/16 04:09:23;;;;;;;1.40;1.30;;;;;;;;;;5049810;28;20484;-74
2023/01/16 04:11:51;;;;;;;2.97;1.40;;;;;;;;;;5050187;28;20455;-73
2023/01/16 04:14:21;;;;;;;2.87;1.20;;;;;;;;;;5050205;28;20452;-73
2023/01/16 04:16:48;;;;;;;1.83;1.40;;;;;;;;;;5029124;28;20549;-73
2023/01/16 04:19:16;;;;;;;1.63;1.43;;;;;;;;;;5029863;28;20466;-72
2023/01/16 04:21:44;;;;;;;3.00;1.23;;;;;;;;;;5030183;28;20450;-72
2023/01/16 04:24:12;;;;;;;1.40;1.30;;;;;;;;;;5029977;28;20446;-73
2023/01/16 04:26:40;;;;;;;4.13;1.50;;;;;;;;;;5029696;28;20477;-73
2023/01/16 04:29:07;;;;;;;4.60;1.47;;;;;;;;;;5029923;28;20465;-74
2023/01/16 04:31:34;;;;;;;2.10;1.20;;;;;;;;;;5029620;28;20453;-73
2023/01/16 04:34:01;;;;;;;2.57;1.80;;;;;;;;;;5029263;28;20801;-74
2023/01/16 04:36:30;;;;;;;1.47;1.47;;;;;;;;;;5029400;28;20443;-74
2023/01/16 04:38:57;;;;;;;1.50;1.40;;;;;;;;;;5029025;28;20473;-73
2023/01/16 04:44:07;;;;;;;1.63;1.53;;;;;;;;;;5027008;28;21020;-74
2023/01/16 04:46:35;;;;;;;1.93;1.53;;;;;;;;;;5029276;28;20496;-73
2023/01/16 04:49:02;;;;;;;1.90;1.40;;;;;;;;;;5029204;28;20468;-73
2023/01/16 04:51:29;;;;;;;1.70;1.60;;;;;;;;;;5029230;28;20811;-74
2023/01/16 04:53:56;;;;;;;1.80;1.70;;;;;;;;;;5030394;28;20476;-73
2023/01/16 04:56:23;;;;;;;1.70;1.60;;;;;;;;;;5029534;28;20924;-73
2023/01/16 04:58:51;;;;;;;2.50;1.87;;;;;;;;;;5029136;28;20465;-74
2023/01/16 05:01:19;;;;;;;4.90;3.23;;;;;;;;;;5029143;28;20812;-73
2023/01/16 05:03:46;;;;;;;5.37;4.00;;;;;;;;;;5028984;28;20438;-73
2023/01/16 05:06:13;;;;;;;5.33;2.50;;;;;;;;;;5029263;28;20531;-73
2023/01/16 05:08:40;;;;;;;3.07;1.97;;;;;;;;;;5028788;28;20481;-73
2023/01/16 05:11:07;;;;;;;3.03;2.10;;;;;;;;;;5028992;28;20453;-73
2023/01/16 05:13:34;;;;;;;2.33;1.90;;;;;;;;;;5028859;28;20568;-74
2023/01/16 05:16:03;;;;;;;1.67;1.57;;;;;;;;;;5042075;28;20839;-73
2023/01/16 05:18:31;;;;;;;3.53;2.13;;;;;;;;;;5048778;28;20596;-73
2023/01/16 05:20:59;;;;;;;2.03;1.90;;;;;;;;;;5050904;28;20445;-73
2023/01/16 05:23:26;;;;;;;3.33;2.00;;;;;;;;;;5051012;28;20456;-73
2023/01/16 05:25:53;;;;;;;2.80;2.33;;;;;;;;;;5049868;28;20482;-73
2023/01/16 05:28:20;;;;;;;4.10;2.60;;;;;;;;;;5050671;28;20487;-74
2023/01/16 05:30:48;;;;;;;2.30;2.10;;;;;;;;;;5052908;28;20444;-72
2023/01/16 05:33:15;;;;;;;7.67;2.10;;;;;;;;;;5052521;28;20892;-73
2023/01/16 05:35:44;;;;;;;2.83;2.20;;;;;;;;;;5052744;28;20492;-73
2023/01/16 05:38:11;;;;;;;2.77;1.80;;;;;;;;;;5060234;28;20448;-73
2023/01/16 05:40:38;;;;;;;2.37;2.13;;;;;;;;;;5067037;28;20452;-73
2023/01/16 05:43:05;;;;;;;2.83;2.30;;;;;;;;;;5061471;28;20439;-73
2023/01/16 05:45:32;;;;;;;2.50;2.30;;;;;;;;;;5052545;28;20486;-74
2023/01/16 05:47:59;;;;;;;3.90;2.80;;;;;;;;;;5052432;28;20447;-73
2023/01/16 05:50:26;;;;;;;2.50;2.30;;;;;;;;;;5052729;28;20518;-72
2023/01/16 05:52:55;;;;;;;3.70;2.53;;;;;;;;;;5052898;28;20449;-73
2023/01/16 05:55:22;;;;;;;4.20;2.40;;;;;;;;;;5052905;28;20506;-73
2023/01/16 05:57:49;;;;;;;7.63;4.90;;;;;;;;;;5052501;28;20452;-72
2023/01/16 06:00:16;;;;;;;2.60;2.40;;;;;;;;;;5053840;28;20480;-73
2023/01/16 06:02:44;;;;;;;3.53;2.00;;;;;;;;;;5053702;28;20459;-74
2023/01/16 06:05:12;;;;;;;3.80;2.20;;;;;;;;;;5052422;28;20455;-73
2023/01/16 06:07:39;;;;;;;2.00;1.70;;;;;;;;;;5052250;28;20472;-73
2023/01/16 06:10:07;;;;;;;8.83;4.20;;;;;;;;;;5052043;28;20471;-72
2023/01/16 06:12:34;;;;;;;3.03;2.30;;;;;;;;;;5052050;28;20444;-72
2023/01/16 06:15:01;;;;;;;3.43;2.13;;;;;;;;;;5046921;28;20453;-73
2023/01/16 06:17:28;;;;;;;3.00;1.93;;;;;;;;;;5032172;28;20477;-74
2023/01/16 06:19:56;;;;;;;1.90;1.70;;;;;;;;;;5031904;28;20997;-73
2023/01/16 06:22:25;;;;;;;2.50;1.80;;;;;;;;;;5031898;28;20444;-73
2023/01/16 06:24:52;;;;;;;2.83;2.03;;;;;;;;;;5031594;28;20905;-73
2023/01/16 06:27:20;;;;;;;2.57;1.90;;;;;;;;;;5031915;28;20497;-74
2023/01/16 06:29:48;;;;;;;3.93;1.80;;;;;;;;;;5031614;28;20467;-73
2023/01/16 06:32:16;;;;;;;7.03;2.63;;;;;;;;;;5031552;28;20516;-74
2023/01/16 06:34:43;;;;;;;4.70;3.13;;;;;;;;;;5031410;28;20453;-74
2023/01/16 06:37:10;;;;;;;8.73;5.17;;;;;;;;;;5031439;28;20456;-73
2023/01/16 06:39:37;;;;;;;7.67;5.20;;;;;;;;;;5030804;28;20469;-73
2023/01/16 06:42:04;;;;;;;7.60;5.20;;;;;;;;;;5031541;28;20453;-73
2023/01/16 06:44:33;;;;;;;2.30;2.20;;;;;;;;;;5031544;28;20465;-74
2023/01/16 06:47:00;;;;;;;3.00;2.27;;;;;;;;;;5032112;28;20518;-73
2023/01/16 06:49:27;;;;;;;2.70;2.50;;;;;;;;;;5031611;28;20473;-73
2023/01/16 06:51:54;;;;;;;3.63;1.77;;;;;;;;;;5031480;28;20460;-73
2023/01/16 06:54:21;;;;;;;2.43;2.23;;;;;;;;;;5031417;28;20468;-73
2023/01/16 06:56:48;;;;;;;2.53;2.00;;;;;;;;;;5031704;28;20446;-74
2023/01/16 06:59:15;;;;;;;10.37;8.43;;;;;;;;;;5031250;28;20564;-74
2023/01/16 07:01:44;;;;;;;3.10;2.80;;;;;;;;;;5032091;28;20451;-72
2023/01/16 07:04:11;;;;;;;3.80;1.90;;;;;;;;;;5031873;28;20446;-73
2023/01/16 07:06:38;;;;;;;2.57;2.37;;;;;;;;;;5035722;28;20484;-73
2023/01/16 07:09:05;;;;;;;2.10;1.90;;;;;;;;;;5049233;28;20456;-73
2023/01/16 07:11:32;;;;;;;3.33;2.43;;;;;;;;;;5047369;28;20803;-73
2023/01/16 07:24:57;;;;;;;2.53;2.33;;;;;;;;;;5050584;28;20392;-73
2023/01/16 07:27:24;;;;;;;1.97;1.87;;;;;;;;;;5050428;28;20495;-74
2023/01/16 07:29:52;;;;;;;2.50;2.30;;;;;;;;;;5050150;28;20466;-73
2023/01/16 07:32:19;;;;;;;6.33;2.63;;;;;;;;;;5050634;28;20445;-75
2023/01/16 07:34:47;;;;;;;3.80;2.60;;;;;;;;;;5053584;28;20815;-74
2023/01/16 07:37:14;;;;;;;2.60;2.40;;;;;;;;;;5053884;28;20442;-74
2023/01/16 07:39:41;;;;;;;2.10;1.90;;;;;;;;;;5050733;28;20475;-73
2023/01/16 07:42:09;;;;;;;2.10;2.00;;;;;;;;;;5050766;28;20481;-73
2023/01/16 07:44:36;;;;;;;2.17;2.07;;;;;;;;;;5049903;28;20949;-73
2023/01/16 07:47:03;;;;;;;2.33;2.03;;;;;;;;;;5050842;28;20482;-73
2023/01/16 07:49:30;;;;;;;2.20;2.00;;;;;;;;;;5049886;28;20854;-73
2023/01/16 07:51:58;;;;;;;2.13;1.77;;;;;;;;;;5050569;28;20514;-75
2023/01/16 07:54:25;;;;;;;2.03;1.83;;;;;;;;;;5050659;28;20460;-74
2023/01/16 07:56:52;;;;;;;4.23;2.17;;;;;;;;;;5049956;28;20949;-73
2023/01/16 07:59:19;;;;;;;2.00;1.90;;;;;;;;;;5050038;28;20543;-73
2023/01/16 08:01:46;;;;;;;2.90;2.40;;;;;;;;;;5049827;28;20472;-73
2023/01/16 08:04:14;;;;;;;2.10;2.00;;;;;;;;;;5049837;28;20471;-73
2023/01/16 08:06:44;;;;;;;3.27;2.03;;;;;;;;;;5050220;28;20475;-74
2023/01/16 08:09:13;;;;;;;2.37;2.27;;;;;;;;;;5050722;28;20467;-74
2023/01/16 08:11:46;;;;;;;1.80;1.70;;;;;;;;;;5050159;28;20785;-74
2023/01/16 08:14:13;;;;;;;3.70;2.00;;;;;;;;;;5050249;28;20453;-73
2023/01/16 08:16:40;;;;;;;2.00;1.90;;;;;;;;;;5031453;28;20477;-74
2023/01/16 08:19:07;;;;;;;2.87;2.30;;;;;;;;;;5029872;28;20993;-75
2023/01/16 08:21:34;;;;;;;2.37;2.20;;;;;;;;;;5030396;28;20474;-75
2023/01/16 08:24:01;;;;;;;2.03;2.03;;;;;;;;;;5030341;28;20454;-73
2023/01/16 08:26:30;;;;;;;2.50;2.27;;;;;;;;;;5029926;28;20473;-74
2023/01/16 08:28:57;;;;;;;1.60;1.50;;;;;;;;;;5030314;28;20555;-73
2023/01/16 08:31:24;;;;;;;2.27;1.57;;;;;;;;;;5030527;28;20450;-73
2023/01/16 08:33:52;;;;;;;1.90;1.80;;;;;;;;;;5033343;28;20450;-73
2023/01/16 08:36:20;;;;;;;1.83;1.70;;;;;;;;;;5032015;28;20797;-74
2023/01/16 08:38:48;;;;;;;2.37;1.60;;;;;;;;;;5031977;28;20466;-74
2023/01/16 08:52:19;;;;;;;1.70;1.50;;;;;;;;;;5031382;28;20457;-74
2023/01/16 08:54:46;;;;;;;2.73;1.77;;;;;;;;;;5029409;28;20453;-74
2023/01/16 08:57:13;;;;;;;1.50;1.47;;;;;;;;;;5029831;28;20445;-73
2023/01/16 08:59:42;;;;;;;1.63;1.53;;;;;;;;;;5029922;28;20461;-74
2023/01/16 09:02:10;;;;;;;1.60;1.50;;;;;;;;;;5029577;28;20457;-74
2023/01/16 09:04:37;;;;;;;5.00;2.10;;;;;;;;;;5033108;28;20452;-74
2023/01/16 09:07:04;;;;;;;1.90;1.60;;;;;;;;;;5033573;28;20477;-74
2023/01/16 09:09:32;;;;;;;1.30;1.20;;;;;;;;;;5032751;28;20462;-73
2023/01/16 09:14:45;;;;;;;8.20;7.40;;;;;;;;;;5035225;28;20465;-74
2023/01/16 09:17:12;;;;;;;11.33;4.50;;;;;;;;;;5053226;28;20452;-74
2023/01/16 09:19:39;;;;;;;5.83;2.73;;;;;;;;;;5052410;28;20466;-74
2023/01/16 09:22:06;;;;;;;2.27;1.80;;;;;;;;;;5053784;28;20477;-73
2023/01/16 09:24:33;;;;;;;2.50;2.40;;;;;;;;;;5053236;28;20460;-73
2023/01/16 09:27:00;;;;;;;1.50;1.40;;;;;;;;;;5053200;28;20488;-73
2023/01/16 09:29:27;;;;;;;1.77;1.50;;;;;;;;;;5053199;28;20474;-74
2023/01/16 09:31:56;;;;;;;4.30;1.50;;;;;;;;;;5053147;28;20464;-73
2023/01/16 09:34:23;;;;;;;1.20;1.20;;;;;;;;;;5052204;28;20455;-73
2023/01/16 09:36:50;;;;;;;1.30;1.20;;;;;;;;;;5048970;28;20592;-74
2023/01/16 09:39:17;;;;;;;2.57;1.27;;;;;;;;;;5041434;28;20459;-73
2023/01/16 09:44:34;;;;;;;1.23;1.13;;;;;;;;;;5052703;28;20767;-74
2023/01/16 09:47:03;;;;;;;1.10;1.00;;;;;;;;;;5052083;28;20560;-75
2023/01/16 09:49:32;;;;;;;0.90;0.90;;;;;;;;;;5049585;28;20473;-74
2023/01/16 10:00:23;;;;;;;1.00;1.00;;;;;;;;;;5035623;28;20416;-73
2023/01/16 10:02:51;;;;;;;1.43;1.33;;;;;;;;;;5032619;28;20446;-74
2023/01/16 10:05:19;;;;;;;2.33;1.00;;;;;;;;;;5033475;28;20469;-74
2023/01/16 10:07:58;;;;;;;1.13;1.13;;;;;;;;;;5033073;28;20484;-73
2023/01/16 10:10:34;;;;;;;1.03;1.03;;;;;;;;;;5042249;28;20451;-73
2023/01/16 10:13:04;;;;;;;1.87;1.10;;;;;;;;;;5042739;28;21049;-74
2023/01/16 10:15:36;;;;;;;1.43;1.33;;;;;;;;;;5040408;28;20444;-75
2023/01/16 10:18:12;;;;;;;1.20;1.13;;;;;;;;;;5043882;28;20859;-73
2023/01/16 10:20:46;;;;;;;1.87;1.27;;;;;;;;;;5043803;28;20441;-73
2023/01/16 10:23:22;;;;;;;1.23;1.20;;;;;;;;;;5043369;28;20453;-74
2023/01/16 10:25:52;;;;;;;4.93;1.87;;;;;;;;;;5056934;28;20947;-75
2023/01/16 10:28:28;;;;;;;1.60;1.30;;;;;;;;;;5051884;28;20515;-74
2023/01/16 10:30:57;;;;;;;1.30;1.30;;;;;;;;;;5049403;28;20442;-74
2023/01/16 10:33:29;;;;;;;1.40;1.30;;;;;;;;;;5051431;28;20794;-74
2023/01/16 10:35:57;;;;;;;1.37;1.27;;;;;;;;;;5044842;28;20452;-73
2023/01/16 10:38:30;;;;;;;1.47;1.27;;;;;;;;;;5051463;28;20458;-74
2023/01/16 10:40:58;;;;;;;0.90;0.90;;;;;;;;;;5050949;28;20469;-75
2023/01/16 10:49:29;;;;;;;1.33;0.90;;;;;;;;;;5038890;28;20510;-74
2023/01/16 10:51:57;;;;;;;0.90;0.90;;;;;;;;;;5046227;28;20468;-74
2023/01/16 10:54:24;;;;;;;1.00;1.00;;;;;;;;;;5049548;28;20448;-75
2023/01/16 10:56:51;;;;;;;1.10;1.00;;;;;;;;;;5051479;28;20792;-74
2023/01/16 10:59:19;;;;;;;1.00;0.90;;;;;;;;;;5043977;28;20465;-74
2023/01/16 11:01:48;;;;;;;1.03;1.00;;;;;;;;;;5049297;28;20448;-73
2023/01/16 11:04:19;;;;;;;1.80;1.00;;;;;;;;;;5050761;28;20448;-75
2023/01/16 11:06:46;;;;;;;0.93;0.93;;;;;;;;;;5050307;28;20472;-75
2023/01/16 11:09:18;;;;;;;1.30;1.10;;;;;;;;;;5050351;28;20481;-74
2023/01/16 11:20:12;;;;;;;0.90;0.90;;;;;;;;;;5048843;28;20532;-74
2023/01/16 11:22:40;;;;;;;1.87;1.20;;;;;;;;;;5049824;28;20457;-75
2023/01/16 11:25:17;;;;;;;1.03;1.03;;;;;;;;;;5049986;28;20989;-74
2023/01/16 11:27:44;;;;;;;1.00;1.00;;;;;;;;;;5049936;28;20575;-74
2023/01/16 11:30:18;;;;;;;2.70;1.17;;;;;;;;;;5050520;28;20872;-74
2023/01/16 11:32:48;;;;;;;0.97;0.97;;;;;;;;;;5034524;28;20929;-75
2023/01/16 11:35:18;;;;;;;1.67;1.07;;;;;;;;;;5043421;28;20431;-74
2023/01/16 11:37:45;;;;;;;2.00;1.80;;;;;;;;;;5041098;28;20438;-74
2023/01/16 11:40:18;;;;;;;1.30;1.20;;;;;;;;;;5041898;28;20476;-74
2023/01/16 11:48:26;;;;;;;1.00;1.00;;;;;;;;;;5043184;28;20511;-74
2023/01/16 11:50:56;;;;;;;1.00;1.00;;;;;;;;;;5051329;28;20556;-74
2023/01/16 11:53:23;;;;;;;1.50;0.90;;;;;;;;;;5053298;28;20448;-75
2023/01/16 11:55:59;;;;;;;0.83;0.83;;;;;;;;;;5057426;28;20447;-74
2023/01/16 11:58:33;;;;;;;2.20;1.00;;;;;;;;;;5042202;28;20452;-75
2023/01/16 12:01:02;;;;;;;1.17;1.00;;;;;;;;;;5038223;28;20441;-75
2023/01/16 12:03:45;;;;;;;3.00;1.20;;;;;;;;;;5049772;28;20446;-75
2023/01/16 12:06:22;;;;;;;0.87;0.87;;;;;;;;;;5047219;28;20444;-74
2023/01/16 12:09:05;;;;;;;3.40;1.13;;;;;;;;;;5061425;28;20485;-74
2023/01/16 12:11:45;;;;;;;1.63;0.83;;;;;;;;;;5056892;28;20459;-73
2023/01/16 12:14:18;;;;;;;1.00;1.00;;;;;;;;;;5049695;28;20461;-73
2023/01/16 12:16:52;;;;;;;1.13;1.10;;;;;;;;;;5050211;28;20436;-74
2023/01/16 12:19:32;;;;;;;1.40;1.40;;;;;;;;;;5049622;28;20464;-75
2023/01/16 12:22:03;;;;;;;3.23;2.57;;;;;;;;;;5035527;28;20444;-74
2023/01/16 12:24:36;;;;;;;1.10;1.10;;;;;;;;;;5037869;28;20477;-74
2023/01/16 12:27:10;;;;;;;2.87;1.10;;;;;;;;;;5049416;28;20456;-76
2023/01/16 12:29:44;;;;;;;0.97;0.93;;;;;;;;;;5049470;28;20475;-74
2023/01/16 12:32:19;;;;;;;1.47;1.00;;;;;;;;;;5049625;28;20448;-73
2023/01/16 12:35:03;;;;;;;0.80;0.80;;;;;;;;;;5044879;28;20433;-75
2023/01/16 12:37:43;;;;;;;0.97;0.97;;;;;;;;;;5039890;28;20450;-75
2023/01/16 12:40:16;;;;;;;0.90;0.90;;;;;;;;;;5037603;28;20469;-75
2023/01/16 12:45:40;;;;;;;1.00;1.00;;;;;;;;;;5045295;28;20412;-73
2023/01/16 12:48:22;;;;;;;0.90;0.90;;;;;;;;;;5048791;28;20477;-74
2023/01/16 12:50:57;;;;;;;1.63;0.90;;;;;;;;;;5041062;28;20869;-74
2023/01/16 12:53:31;;;;;;;1.40;1.30;;;;;;;;;;5038480;28;20441;-75
2023/01/16 12:56:03;;;;;;;0.80;0.80;;;;;;;;;;5038774;28;20927;-74
2023/01/16 12:58:32;;;;;;;0.90;0.90;;;;;;;;;;5037849;28;20969;-75
2023/01/16 13:01:04;;;;;;;1.17;0.80;;;;;;;;;;5035203;28;20448;-74
2023/01/16 13:03:35;;;;;;;0.77;0.77;;;;;;;;;;5038211;28;20469;-75
2023/01/16 13:06:04;;;;;;;0.97;0.97;;;;;;;;;;5029284;28;20439;-74
2023/01/16 13:08:34;;;;;;;0.90;0.90;;;;;;;;;;5029010;28;21129;-74
2023/01/16 13:13:53;;;;;;;1.10;1.10;;;;;;;;;;5047828;28;20460;-74
2023/01/16 13:16:21;;;;;;;1.07;1.07;;;;;;;;;;5033272;28;20441;-75
2023/01/16 13:18:51;;;;;;;1.53;0.90;;;;;;;;;;5032388;28;20473;-74
2023/01/16 13:21:20;;;;;;;1.10;1.10;;;;;;;;;;5042649;28;20944;-75
2023/01/16 13:23:50;;;;;;;0.83;0.83;;;;;;;;;;5046430;28;20456;-75
2023/01/16 13:26:18;;;;;;;0.90;0.90;;;;;;;;;;5049624;28;21006;-74
2023/01/16 13:28:48;;;;;;;0.80;0.80;;;;;;;;;;5048935;28;20493;-74
2023/01/16 13:31:18;;;;;;;1.37;1.10;;;;;;;;;;5050971;28;20454;-74
2023/01/16 13:33:46;;;;;;;1.63;0.70;;;;;;;;;;5051245;28;20969;-75
2023/01/16 13:36:21;;;;;;;0.80;0.80;;;;;;;;;;5051014;28;20441;-75
2023/01/16 13:38:56;;;;;;;0.70;0.70;;;;;;;;;;5050695;28;20476;-74
2023/01/16 13:41:25;;;;;;;0.93;0.93;;;;;;;;;;5052849;28;20448;-74
2023/01/16 13:46:40;;;;;;;0.80;0.80;;;;;;;;;;5049205;28;20511;-74
2023/01/16 13:49:09;;;;;;;0.60;0.60;;;;;;;;;;5050438;28;20488;-73
2023/01/16 13:51:42;;;;;;;1.33;0.90;;;;;;;;;;5052445;28;20449;-75
2023/01/16 13:54:14;;;;;;;1.63;0.83;;;;;;;;;;5052269;28;20445;-74
2023/01/16 13:56:42;;;;;;;2.00;0.60;;;;;;;;;;5052663;28;20514;-74
2023/01/16 13:59:15;;;;;;;0.70;0.70;;;;;;;;;;5052088;28;20827;-75
2023/01/16 14:01:56;;;;;;;1.43;0.90;;;;;;;;;;5052284;28;20483;-74
2023/01/16 14:04:28;;;;;;;1.10;1.00;;;;;;;;;;5052234;28;20517;-74
2023/01/16 14:09:03;;;;;;;1.07;1.07;;;;;;;;;;5051989;28;20481;-74
2023/01/16 14:10:04;;;;;;;1.87;0.60;;;;;;;;;;5051592;28;20477;-73
2023/01/16 14:12:35;;;;;;;0.80;0.80;;;;;;;;;;5052350;28;20428;-75
2023/01/16 14:18:14;;;;;;;1.33;1.00;;;;;;;;;;5032412;28;20936;-74
2023/01/16 14:20:46;;;;;;;1.00;1.00;;;;;;;;;;5031617;28;20512;-74
2023/01/16 14:26:06;;;;;;;0.70;0.70;;;;;;;;;;5031671;28;20523;-74
2023/01/16 14:28:34;;;;;;;0.63;0.60;;;;;;;;;;5032382;28;20513;-73
2023/01/16 14:31:01;;;;;;;0.80;0.80;;;;;;;;;;5032751;28;20631;-75
2023/01/16 14:33:29;;;;;;;0.60;0.60;;;;;;;;;;5031461;28;21021;-74
2023/01/16 14:35:58;;;;;;;0.50;0.50;;;;;;;;;;5031300;28;20915;-74
2023/01/16 14:38:27;;;;;;;1.00;1.00;;;;;;;;;;5031184;28;20481;-73
2023/01/16 14:55:48;;;;;;;2.30;0.70;;;;;;;;;;5037158;28;20421;-73
2023/01/16 14:58:16;;;;;;;1.00;1.00;;;;;;;;;;5052037;28;20491;-73
2023/01/16 15:00:45;;;;;;;1.13;1.03;;;;;;;;;;5051166;28;20499;-75
2023/01/16 15:03:14;;;;;;;0.70;0.70;;;;;;;;;;5047289;28;20438;-73
2023/01/16 15:05:53;;;;;;;1.17;1.17;;;;;;;;;;5049286;28;20449;-73
2023/01/16 15:08:23;;;;;;;0.67;0.67;;;;;;;;;;5050617;28;20491;-75
2023/01/16 15:10:52;;;;;;;1.20;1.20;;;;;;;;;;5050630;28;20803;-74
2023/01/16 15:13:22;;;;;;;0.80;0.80;;;;;;;;;;5048707;28;20441;-75
2023/01/16 15:15:52;;;;;;;0.83;0.80;;;;;;;;;;5037341;28;20446;-76
2023/01/16 15:24:01;;;;;;;0.97;0.97;;;;;;;;;;5028001;28;20500;-73
2023/01/16 15:26:50;;;;;;;0.70;0.70;;;;;;;;;;5030584;28;20442;-74
2023/01/16 15:29:41;;;;;;;0.87;0.87;;;;;;;;;;5027221;28;20496;-74
2023/01/16 15:32:17;;;;;;;0.80;0.80;;;;;;;;;;5025838;28;20460;-73
2023/01/16 15:34:45;;;;;;;1.07;1.07;;;;;;;;;;5031227;28;20495;-74
2023/01/16 15:37:32;;;;;;;1.50;1.30;;;;;;;;;;5033464;28;20544;-74
2023/01/16 15:39:59;;;;;;;2.20;1.10;;;;;;;;;;5037086;28;20594;-73
2023/01/16 15:48:22;;;;;;;0.90;0.90;;;;;;;;;;5002778;28;20894;-75
2023/01/16 15:50:52;;;;;;;1.50;1.40;;;;;;;;;;5017171;28;20440;-75
2023/01/16 15:53:20;;;;;;;1.20;1.20;;;;;;;;;;5037901;28;20435;-73
2023/01/16 15:55:50;;;;;;;0.90;0.90;;;;;;;;;;5029948;28;20455;-74
2023/01/16 15:58:18;;;;;;;0.87;0.87;;;;;;;;;;5030294;28;21022;-75
2023/01/16 16:00:46;;;;;;;0.73;0.73;;;;;;;;;;5030061;28;20958;-74
2023/01/16 16:03:16;;;;;;;1.20;1.10;;;;;;;;;;5029705;28;20447;-75
2023/01/16 16:05:46;;;;;;;1.13;1.07;;;;;;;;;;5030166;28;21021;-75
2023/01/16 16:08:16;;;;;;;1.07;1.07;;;;;;;;;;5029683;28;20489;-74
2023/01/16 16:13:28;;;;;;;1.27;1.17;;;;;;;;;;5048818;28;20452;-74
2023/01/16 16:18:52;;;;;;;1.07;1.07;;;;;;;;;;5029825;28;20450;-74
2023/01/16 16:21:21;;;;;;;1.30;1.20;;;;;;;;;;5029290;28;20503;-74
2023/01/16 16:23:54;;;;;;;1.17;1.17;;;;;;;;;;5029122;28;20950;-73
2023/01/16 16:26:22;;;;;;;0.90;0.90;;;;;;;;;;5029618;28;20476;-74
2023/01/16 16:28:49;;;;;;;1.10;1.10;;;;;;;;;;5029085;28;20500;-74
2023/01/16 16:31:19;;;;;;;1.23;1.13;;;;;;;;;;5029660;28;20453;-73
2023/01/16 16:33:55;;;;;;;1.00;1.00;;;;;;;;;;5034519;28;20448;-73
2023/01/16 16:36:23;;;;;;;1.17;1.17;;;;;;;;;;5031012;28;20518;-73
2023/01/16 16:38:51;;;;;;;1.00;1.00;;;;;;;;;;5038522;28;20462;-72
2023/01/16 16:44:34;;;;;;;1.20;1.20;;;;;;;;;;5031086;28;20423;-74
2023/01/16 16:47:01;;;;;;;1.07;1.07;;;;;;;;;;5039790;28;20453;-74
2023/01/16 16:49:29;;;;;;;1.10;1.10;;;;;;;;;;5046744;28;20913;-72